Time;durP1;ratioP1;P1;durP2;ratioP2;P2;SDS_P1;SDS_P2;PMS_P1;PMS_P2;Temp;Humidity;BMP_temperature;BMP_pressure;BME280_temperature;BME280_humidity;BME280_pressure;Samples;Min_cycle;Max_cycle;Signal;HPM_P1;HPM_P2
2021/03/01 00:01:14;;;;;;;2.13;1.33;;;1.40;98.00;;;;;;5073337;28;20456;-72
2021/03/01 00:03:41;;;;;;;2.80;2.10;;;1.30;98.00;;;;;;5073438;28;20830;-72
2021/03/01 00:06:07;;;;;;;3.03;2.33;;;1.20;98.00;;;;;;5071309;28;20463;-72
2021/03/01 00:08:34;;;;;;;2.27;2.10;;;1.10;98.00;;;;;;5072766;28;20491;-72
2021/03/01 00:11:00;;;;;;;1.40;1.27;;;1.10;98.00;;;;;;5070419;28;20497;-72
2021/03/01 00:13:27;;;;;;;1.93;1.73;;;1.30;98.00;;;;;;5072867;28;20488;-72
2021/03/01 00:15:54;;;;;;;1.60;1.30;;;1.50;98.00;;;;;;5070540;28;20460;-72
2021/03/01 00:18:21;;;;;;;3.27;2.47;;;1.60;98.00;;;;;;5072789;28;20500;-72
2021/03/01 00:20:48;;;;;;;1.20;1.10;;;1.60;98.00;;;;;;5070064;28;20453;-72
2021/03/01 00:23:14;;;;;;;1.20;1.20;;;1.50;98.00;;;;;;5072737;28;20468;-72
2021/03/01 00:25:41;;;;;;;1.40;1.20;;;1.50;98.00;;;;;;5070432;28;20453;-72
2021/03/01 00:28:09;;;;;;;1.30;1.30;;;1.40;98.00;;;;;;5072462;28;20869;-72
2021/03/01 00:30:35;;;;;;;1.30;1.20;;;1.20;98.00;;;;;;5069947;28;20503;-72
2021/03/01 00:33:03;;;;;;;1.90;1.57;;;1.00;98.00;;;;;;5072536;28;20456;-72
2021/03/01 00:35:30;;;;;;;3.37;2.57;;;0.90;98.00;;;;;;5069939;28;20456;-72
2021/03/01 00:37:56;;;;;;;1.50;1.20;;;0.90;98.00;;;;;;5072228;28;20460;-72
2021/03/01 00:40:23;;;;;;;1.20;1.00;;;0.90;98.00;;;;;;5069998;28;20459;-72
2021/03/01 00:42:49;;;;;;;1.20;1.00;;;0.90;98.00;;;;;;5072144;28;20460;-72
2021/03/01 00:45:16;;;;;;;1.30;1.17;;;1.00;98.00;;;;;;5069709;28;20514;-72
2021/03/01 00:47:43;;;;;;;1.50;1.43;;;0.90;98.00;;;;;;5071981;28;20456;-72
2021/03/01 00:50:11;;;;;;;1.30;1.27;;;0.80;98.00;;;;;;5069710;28;20962;-72
2021/03/01 00:52:38;;;;;;;1.20;1.20;;;0.80;98.00;;;;;;5071979;28;20543;-72
2021/03/01 00:55:05;;;;;;;1.60;1.43;;;0.90;98.00;;;;;;5069784;28;20471;-72
2021/03/01 00:57:32;;;;;;;1.30;1.20;;;0.90;98.00;;;;;;5071870;28;20494;-72
2021/03/01 00:59:59;;;;;;;1.87;1.30;;;0.90;98.00;;;;;;5069705;28;20464;-72
2021/03/01 01:02:25;;;;;;;1.30;1.20;;;0.80;98.00;;;;;;5071865;28;20531;-72
2021/03/01 01:04:52;;;;;;;1.20;1.10;;;1.00;98.00;;;;;;5069716;28;20841;-72
2021/03/01 01:07:19;;;;;;;1.73;1.73;;;1.00;98.00;;;;;;5072186;28;20475;-72
2021/03/01 01:09:45;;;;;;;1.30;1.27;;;0.80;98.00;;;;;;5069221;28;20519;-72
2021/03/01 01:12:12;;;;;;;1.40;1.30;;;0.70;98.00;;;;;;5071728;28;20523;-72
2021/03/01 01:14:38;;;;;;;2.27;1.50;;;0.80;98.00;;;;;;5069572;28;20518;-72
2021/03/01 01:17:06;;;;;;;2.07;1.40;;;0.90;98.00;;;;;;5071615;28;20464;-72
2021/03/01 01:19:32;;;;;;;1.27;1.23;;;0.80;98.00;;;;;;5069140;28;20984;-72
2021/03/01 01:21:59;;;;;;;1.50;1.20;;;0.60;98.00;;;;;;5071494;28;20455;-72
2021/03/01 01:24:26;;;;;;;1.40;1.27;;;0.50;98.00;;;;;;5069353;28;20459;-72
2021/03/01 01:26:53;;;;;;;1.30;1.30;;;0.60;98.00;;;;;;5071373;28;20963;-72
2021/03/01 01:29:19;;;;;;;3.17;2.03;;;0.70;98.00;;;;;;5069114;28;20914;-72
2021/03/01 01:31:46;;;;;;;1.20;1.10;;;0.70;98.00;;;;;;5071203;28;20456;-72
2021/03/01 01:34:12;;;;;;;1.97;1.20;;;0.80;98.00;;;;;;5068522;28;20456;-72
2021/03/01 01:36:39;;;;;;;1.60;1.57;;;0.80;98.00;;;;;;5071032;28;20803;-72
2021/03/01 01:39:06;;;;;;;1.20;1.10;;;0.90;98.00;;;;;;5069257;28;20857;-71
2021/03/01 01:41:33;;;;;;;2.03;1.70;;;0.70;98.00;;;;;;5071228;28;20466;-71
2021/03/01 01:44:00;;;;;;;1.30;1.30;;;0.70;98.00;;;;;;5069389;28;20888;-71
2021/03/01 01:46:26;;;;;;;3.23;1.83;;;0.60;98.00;;;;;;5070815;28;20492;-71
2021/03/01 01:48:55;;;;;;;1.30;1.13;;;0.50;98.00;;;;;;5070943;28;20546;-71
2021/03/01 01:51:22;;;;;;;1.60;1.60;;;0.40;98.00;;;;;;5069030;28;20487;-72
2021/03/01 01:53:49;;;;;;;1.20;1.10;;;0.20;98.00;;;;;;5071017;28;20491;-72
2021/03/01 01:56:15;;;;;;;1.40;1.30;;;0.30;98.00;;;;;;5068652;28;20541;-71
2021/03/01 01:58:44;;;;;;;2.20;1.70;;;0.40;98.00;;;;;;5071141;28;20464;-72
2021/03/01 02:01:10;;;;;;;2.07;1.60;;;0.20;98.00;;;;;;5067482;28;21056;-72
2021/03/01 02:03:51;;;;;;;1.40;1.20;;;0.20;98.00;;;;;;5070813;28;20493;-72
2021/03/01 02:06:35;;;;;;;2.40;2.20;;;0.30;98.00;;;;;;5068731;28;20509;-71
2021/03/01 02:09:18;;;;;;;1.20;1.10;;;0.50;98.00;;;;;;5069568;28;20544;-71
2021/03/01 02:11:57;;;;;;;1.57;1.50;;;0.70;98.00;;;;;;5070842;28;20512;-72
2021/03/01 02:14:34;;;;;;;2.17;1.20;;;0.50;98.00;;;;;;5068974;28;20524;-71
2021/03/01 02:17:01;;;;;;;1.87;1.40;;;0.40;98.00;;;;;;5071211;28;20942;-72
2021/03/01 02:19:28;;;;;;;1.30;1.23;;;0.60;98.00;;;;;;5068795;28;20593;-71
2021/03/01 02:21:55;;;;;;;1.20;1.00;;;0.60;98.00;;;;;;5070951;28;20452;-71
2021/03/01 02:24:27;;;;;;;1.63;1.20;;;0.60;98.00;;;;;;5068743;28;20495;-72
2021/03/01 02:26:57;;;;;;;1.20;1.13;;;0.40;98.00;;;;;;5070715;28;20462;-71
2021/03/01 02:29:25;;;;;;;1.30;1.20;;;0.30;98.00;;;;;;5068306;28;20491;-71
2021/03/01 02:31:55;;;;;;;1.20;1.00;;;0.20;98.00;;;;;;5070600;28;20465;-71
2021/03/01 02:34:26;;;;;;;4.20;1.37;;;0.10;98.00;;;;;;5068344;28;21087;-72
2021/03/01 02:36:58;;;;;;;1.67;1.57;;;0.30;98.00;;;;;;5070337;28;20903;-71
2021/03/01 02:39:27;;;;;;;1.20;1.00;;;0.30;98.00;;;;;;5068332;28;21153;-71
2021/03/01 02:41:55;;;;;;;2.47;1.37;;;0.40;98.00;;;;;;5070607;28;20517;-71
2021/03/01 02:44:22;;;;;;;1.20;1.10;;;0.50;98.00;;;;;;5068474;28;20509;-71
2021/03/01 02:46:50;;;;;;;1.60;1.47;;;0.60;98.00;;;;;;5074173;28;20472;-71
2021/03/01 02:49:18;;;;;;;2.70;2.43;;;0.60;98.00;;;;;;5072070;28;20526;-71
2021/03/01 02:51:48;;;;;;;1.40;1.40;;;0.60;98.00;;;;;;5074150;28;20489;-71
2021/03/01 02:54:16;;;;;;;1.20;1.10;;;0.50;98.00;;;;;;5071848;28;20456;-71
2021/03/01 02:56:47;;;;;;;1.30;1.20;;;0.30;98.00;;;;;;5074182;28;20939;-71
2021/03/01 02:59:14;;;;;;;1.50;1.33;;;0.20;98.00;;;;;;5071950;28;20507;-71
2021/03/01 03:01:42;;;;;;;1.33;1.30;;;0.10;98.00;;;;;;5073999;28;20502;-71
2021/03/01 03:04:09;;;;;;;2.50;1.60;;;0.20;98.00;;;;;;5071651;28;20483;-71
2021/03/01 03:06:37;;;;;;;2.30;1.63;;;0.10;98.00;;;;;;5074132;28;20886;-71
2021/03/01 03:09:07;;;;;;;2.27;1.23;;;-0.10;98.00;;;;;;5073647;28;20506;-71
2021/03/01 03:11:38;;;;;;;1.30;1.20;;;-0.20;98.00;;;;;;5074048;28;20558;-71
2021/03/01 03:14:08;;;;;;;1.20;1.10;;;-0.30;98.00;;;;;;5073421;28;20858;-71
2021/03/01 03:16:35;;;;;;;1.20;0.93;;;-0.30;98.00;;;;;;5073627;28;20465;-71
2021/03/01 03:19:03;;;;;;;1.30;1.27;;;-0.20;98.00;;;;;;5074197;28;20806;-71
2021/03/01 03:21:30;;;;;;;1.20;1.10;;;-0.10;98.00;;;;;;5072002;28;20459;-71
2021/03/01 03:23:57;;;;;;;1.30;1.20;;;0.00;98.00;;;;;;5074167;28;20537;-71
2021/03/01 03:26:23;;;;;;;3.20;2.50;;;0.00;98.00;;;;;;5071185;28;20460;-71
2021/03/01 03:28:51;;;;;;;1.20;1.00;;;0.00;98.00;;;;;;5073859;28;20484;-71
2021/03/01 03:31:17;;;;;;;1.30;1.20;;;0.00;98.00;;;;;;5071478;28;21015;-71
2021/03/01 03:33:45;;;;;;;1.20;1.00;;;-0.30;98.00;;;;;;5073645;28;20516;-71
2021/03/01 03:36:13;;;;;;;1.77;1.70;;;-0.30;98.00;;;;;;5071354;28;20460;-71
2021/03/01 03:38:43;;;;;;;1.30;1.30;;;-0.30;98.00;;;;;;5073460;28;21011;-71
2021/03/01 03:41:13;;;;;;;1.20;1.00;;;-0.20;98.00;;;;;;5071123;28;20459;-71
2021/03/01 03:43:40;;;;;;;2.30;2.03;;;-0.30;98.00;;;;;;5073275;28;20600;-71
2021/03/01 03:46:08;;;;;;;1.20;1.00;;;-0.30;98.00;;;;;;5069657;28;20891;-71
2021/03/01 03:48:38;;;;;;;1.20;1.07;;;-0.40;98.00;;;;;;5073280;28;20461;-71
2021/03/01 03:51:08;;;;;;;5.83;1.97;;;-0.50;98.00;;;;;;5070829;28;20464;-71
2021/03/01 03:53:39;;;;;;;1.30;1.20;;;-0.50;98.00;;;;;;5073238;28;20542;-71
2021/03/01 03:56:06;;;;;;;1.30;1.23;;;-0.60;98.00;;;;;;5069799;28;20481;-70
2021/03/01 03:58:41;;;;;;;1.20;1.00;;;-0.60;98.00;;;;;;5073041;28;20469;-71
2021/03/01 04:01:10;;;;;;;1.77;1.50;;;-0.60;98.00;;;;;;5069775;28;20466;-71
2021/03/01 04:03:38;;;;;;;1.50;1.30;;;-0.40;98.00;;;;;;5072874;28;20515;-71
2021/03/01 04:06:06;;;;;;;2.90;1.67;;;-0.20;98.00;;;;;;5070232;28;21022;-71
2021/03/01 04:08:35;;;;;;;1.40;1.30;;;-0.10;98.00;;;;;;5072406;28;20534;-71
2021/03/01 04:11:02;;;;;;;1.80;1.67;;;0.00;98.00;;;;;;5070187;28;21022;-71
2021/03/01 04:13:32;;;;;;;1.60;1.40;;;-0.10;98.00;;;;;;5072259;28;20954;-71
2021/03/01 04:15:59;;;;;;;1.53;1.30;;;-0.30;98.00;;;;;;5070565;28;20464;-70
2021/03/01 04:18:33;;;;;;;2.27;1.70;;;-0.30;98.00;;;;;;5072644;28;20846;-70
2021/03/01 04:21:03;;;;;;;1.20;1.10;;;-0.30;98.00;;;;;;5070480;28;20468;-70
2021/03/01 04:23:32;;;;;;;2.33;1.83;;;-0.30;98.00;;;;;;5072464;28;20463;-70
2021/03/01 04:26:00;;;;;;;1.20;1.10;;;-0.40;98.00;;;;;;5070721;28;20484;-70
2021/03/01 04:28:27;;;;;;;1.37;1.20;;;-0.50;98.00;;;;;;5072600;28;20487;-70
2021/03/01 04:30:59;;;;;;;1.30;1.30;;;-0.50;98.00;;;;;;5070045;28;20454;-70
2021/03/01 04:33:34;;;;;;;1.80;1.30;;;-0.40;98.00;;;;;;5072543;28;20465;-70
2021/03/01 04:36:01;;;;;;;1.20;1.10;;;-0.50;98.00;;;;;;5070309;28;20537;-70
2021/03/01 04:38:28;;;;;;;1.20;1.00;;;-0.60;98.00;;;;;;5072522;28;20500;-70
2021/03/01 04:40:55;;;;;;;1.40;1.30;;;-0.70;98.00;;;;;;5069731;28;20850;-70
2021/03/01 04:43:24;;;;;;;1.40;1.17;;;-0.70;98.00;;;;;;5072203;28;20549;-70
2021/03/01 04:45:51;;;;;;;1.20;1.00;;;-0.60;98.00;;;;;;5069301;28;20474;-70
2021/03/01 04:48:20;;;;;;;1.70;1.27;;;-0.40;98.00;;;;;;5072020;28;20462;-70
2021/03/01 04:50:49;;;;;;;2.27;1.27;;;-0.50;98.00;;;;;;5069306;28;20515;-70
2021/03/01 04:53:16;;;;;;;2.17;2.03;;;-0.60;98.00;;;;;;5071883;28;20455;-70
2021/03/01 04:55:43;;;;;;;1.20;1.00;;;-0.70;98.00;;;;;;5070156;28;20461;-70
2021/03/01 04:58:10;;;;;;;1.20;1.17;;;-0.80;98.00;;;;;;5072054;28;20939;-70
2021/03/01 05:00:38;;;;;;;1.20;1.03;;;-0.80;98.00;;;;;;5067687;28;20458;-70
2021/03/01 05:03:07;;;;;;;1.70;1.38;;;-0.90;98.00;;;;;;5071776;28;20949;-70
2021/03/01 05:05:34;;;;;;;2.65;1.80;;;-0.90;98.00;;;;;;5085538;28;20602;-70
2021/03/01 05:08:13;;;;;;;2.40;1.57;;;-1.10;98.00;;;;;;5070880;28;20216;-70
2021/03/01 05:10:41;;;;;;;1.30;1.20;;;-1.10;98.00;;;;;;5069012;28;20489;-70
2021/03/01 05:13:08;;;;;;;3.33;1.50;;;-1.10;98.00;;;;;;5071669;28;20955;-70
2021/03/01 05:15:34;;;;;;;1.77;1.43;;;-1.10;98.00;;;;;;5069165;28;20542;-70
2021/03/01 05:18:02;;;;;;;2.65;1.30;;;-1.10;98.00;;;;;;5071443;28;20960;-70
2021/03/01 05:20:28;;;;;;;2.10;1.95;;;-1.10;98.00;;;;;;5068885;28;20208;-70
2021/03/01 05:22:55;;;;;;;1.30;1.10;;;-1.00;98.00;;;;;;5071498;28;20204;-70
2021/03/01 05:25:22;;;;;;;1.20;1.10;;;-0.90;98.00;;;;;;5069354;28;21049;-70
2021/03/01 05:27:49;;;;;;;1.47;1.40;;;-0.80;98.00;;;;;;5071478;28;20466;-70
2021/03/01 05:30:16;;;;;;;2.00;1.63;;;-0.60;98.00;;;;;;5068933;28;20489;-70
2021/03/01 05:32:43;;;;;;;1.20;1.00;;;-0.50;98.00;;;;;;5071307;28;20474;-70
2021/03/01 05:35:10;;;;;;;1.20;1.00;;;-0.50;98.00;;;;;;5069179;28;20837;-70
2021/03/01 05:37:36;;;;;;;2.30;1.53;;;-0.40;98.00;;;;;;5071634;28;20993;-70
2021/03/01 05:40:05;;;;;;;1.47;1.20;;;-0.30;98.00;;;;;;5069105;28;20489;-70
2021/03/01 05:42:35;;;;;;;1.83;1.40;;;-0.20;98.00;;;;;;5071255;28;20458;-70
2021/03/01 05:45:03;;;;;;;1.20;1.17;;;-0.50;98.00;;;;;;5069074;28;20461;-70
2021/03/01 05:47:32;;;;;;;1.50;1.43;;;-0.60;98.00;;;;;;5071372;28;20450;-70
2021/03/01 05:49:59;;;;;;;2.70;1.67;;;-0.60;98.00;;;;;;5068804;28;20482;-70
2021/03/01 05:52:28;;;;;;;1.43;1.40;;;-0.60;98.00;;;;;;5071139;28;20464;-70
2021/03/01 05:54:55;;;;;;;1.20;1.10;;;-0.70;98.00;;;;;;5068973;28;20986;-70
2021/03/01 05:57:23;;;;;;;3.10;2.37;;;-0.90;98.00;;;;;;5071248;28;20543;-70
2021/03/01 05:59:51;;;;;;;2.33;1.57;;;-1.10;98.00;;;;;;5068740;28;20453;-70
2021/03/01 06:02:18;;;;;;;1.20;1.10;;;-1.20;98.00;;;;;;5071152;28;20939;-70
2021/03/01 06:04:44;;;;;;;1.20;1.03;;;-1.20;98.00;;;;;;5068545;28;20458;-70
2021/03/01 06:07:11;;;;;;;2.47;1.87;;;-1.30;98.00;;;;;;5071116;28;20446;-70
2021/03/01 06:09:39;;;;;;;1.20;1.10;;;-1.20;98.00;;;;;;5068900;28;20485;-70
2021/03/01 06:12:06;;;;;;;2.33;1.93;;;-1.10;98.00;;;;;;5070914;28;20456;-70
2021/03/01 06:14:33;;;;;;;1.80;1.50;;;-1.20;98.00;;;;;;5068315;28;20453;-70
2021/03/01 06:17:14;;;;;;;1.20;1.00;;;-1.20;98.00;;;;;;5070834;28;20465;-70
2021/03/01 06:19:49;;;;;;;1.63;1.52;;;-1.30;98.00;;;;;;5070752;28;20271;-70
2021/03/01 06:22:17;;;;;;;1.52;1.40;;;-1.30;98.00;;;;;;5074739;28;20206;-70
2021/03/01 06:25:00;;;;;;;1.63;1.55;;;-1.30;98.00;;;;;;5072100;28;20265;-70
2021/03/01 06:27:27;;;;;;;1.70;1.47;;;-1.10;98.00;;;;;;5074723;28;20206;-70
2021/03/01 06:30:08;;;;;;;8.33;2.90;;;-1.10;98.00;;;;;;5072706;28;20493;-70
2021/03/01 06:32:36;;;;;;;1.20;1.20;;;-0.90;98.00;;;;;;5074627;28;20468;-70
2021/03/01 06:35:27;;;;;;;1.40;1.20;;;-1.00;98.00;;;;;;5072585;28;20449;-70
2021/03/01 06:38:35;;;;;;;2.03;1.63;;;-1.00;98.00;;;;;;5074760;28;20460;-70
2021/03/01 06:41:10;;;;;;;2.20;2.00;;;-1.10;98.00;;;;;;5071493;28;20468;-70
2021/03/01 06:43:38;;;;;;;1.20;1.10;;;-1.10;98.00;;;;;;5074429;28;20453;-70
2021/03/01 06:46:12;;;;;;;1.20;1.17;;;-1.20;98.00;;;;;;5072398;28;20472;-70
2021/03/01 06:48:43;;;;;;;1.30;1.15;;;-1.20;98.00;;;;;;5074767;28;20838;-70
2021/03/01 06:51:10;;;;;;;1.50;1.20;;;-1.00;98.00;;;;;;5072017;28;20200;-70
2021/03/01 06:53:38;;;;;;;1.58;1.42;;;-0.90;98.00;;;;;;5074528;28;20488;-70
2021/03/01 06:56:06;;;;;;;1.77;1.40;;;-0.90;98.00;;;;;;5072255;28;20232;-70
2021/03/01 06:58:37;;;;;;;2.07;1.97;;;-1.00;98.00;;;;;;5074305;28;20446;-70
2021/03/01 07:01:07;;;;;;;1.20;1.00;;;-1.00;98.00;;;;;;5072070;28;20476;-70
2021/03/01 07:03:35;;;;;;;1.80;1.57;;;-1.00;98.00;;;;;;5074278;28;20454;-70
2021/03/01 07:06:04;;;;;;;1.60;1.47;;;-0.80;98.00;;;;;;5071739;28;20459;-70
2021/03/01 07:08:44;;;;;;;2.73;1.77;;;-0.70;98.00;;;;;;5074085;28;20494;-70
2021/03/01 07:11:29;;;;;;;1.30;1.20;;;-0.90;98.00;;;;;;5071729;28;20474;-70
2021/03/01 07:13:59;;;;;;;1.97;1.60;;;-0.80;98.00;;;;;;5073970;28;20463;-70
2021/03/01 07:16:26;;;;;;;2.17;1.67;;;-0.80;98.00;;;;;;5071600;28;20870;-71
2021/03/01 07:18:53;;;;;;;1.20;1.07;;;-0.90;98.00;;;;;;5073942;28;20493;-70
2021/03/01 07:21:21;;;;;;;1.20;1.00;;;-0.80;98.00;;;;;;5071168;28;20455;-70
2021/03/01 07:23:49;;;;;;;11.63;2.20;;;-0.80;98.00;;;;;;5073831;28;20458;-70
2021/03/01 07:26:17;;;;;;;1.83;1.73;;;-0.80;98.00;;;;;;5071586;28;20453;-70
2021/03/01 07:28:47;;;;;;;22.97;2.90;;;-0.80;98.00;;;;;;5073635;28;20459;-70
2021/03/01 07:31:16;;;;;;;1.20;1.00;;;-0.60;98.00;;;;;;5070567;28;21052;-70
2021/03/01 07:33:44;;;;;;;1.20;1.00;;;-0.40;98.00;;;;;;5073546;28;20465;-70
2021/03/01 07:36:11;;;;;;;1.70;1.60;;;-0.30;98.00;;;;;;5071330;28;20458;-70
2021/03/01 07:38:40;;;;;;;3.10;2.10;;;-0.20;98.00;;;;;;5073527;28;21112;-70
2021/03/01 07:41:07;;;;;;;1.53;1.40;;;0.00;98.00;;;;;;5071187;28;20459;-70
2021/03/01 07:43:36;;;;;;;1.20;1.07;;;0.20;98.00;;;;;;5073323;28;20463;-69
2021/03/01 07:46:03;;;;;;;1.50;1.30;;;0.30;98.00;;;;;;5070705;28;20961;-69
2021/03/01 07:48:42;;;;;;;1.20;1.07;;;0.30;98.00;;;;;;5073243;28;20995;-69
2021/03/01 07:51:09;;;;;;;1.20;1.07;;;0.30;98.00;;;;;;5070813;28;20522;-70
2021/03/01 07:53:49;;;;;;;1.63;1.50;;;0.30;98.00;;;;;;5073660;28;21127;-70
2021/03/01 07:56:52;;;;;;;1.43;1.27;;;0.40;98.00;;;;;;5071293;28;20543;-70
2021/03/01 07:59:37;;;;;;;1.43;1.20;;;0.50;98.00;;;;;;5073373;28;20527;-70
2021/03/01 08:02:20;;;;;;;1.50;1.47;;;0.50;98.00;;;;;;5072933;28;20869;-70
2021/03/01 08:04:47;;;;;;;1.20;1.00;;;0.50;98.00;;;;;;5070845;28;20449;-70
2021/03/01 08:07:13;;;;;;;1.77;1.50;;;0.60;98.00;;;;;;5073007;28;20491;-70
2021/03/01 08:09:49;;;;;;;1.37;1.33;;;0.60;98.00;;;;;;5070405;28;20578;-70
2021/03/01 08:12:54;;;;;;;1.63;1.27;;;0.70;98.00;;;;;;5072921;28;20462;-70
2021/03/01 08:15:22;;;;;;;2.13;1.50;;;0.90;98.00;;;;;;5070641;28;20467;-71
2021/03/01 08:17:50;;;;;;;1.97;1.30;;;1.70;98.00;;;;;;5072856;28;20492;-72
2021/03/01 08:20:40;;;;;;;1.20;1.10;;;2.90;98.00;;;;;;5070329;28;20452;-71
2021/03/01 08:23:19;;;;;;;1.63;1.63;;;4.20;98.00;;;;;;5072170;28;20873;-71
2021/03/01 08:25:51;;;;;;;2.17;1.73;;;4.60;98.00;;;;;;5070173;28;20860;-71
2021/03/01 08:28:43;;;;;;;1.67;1.53;;;4.50;98.00;;;;;;5072415;28;20519;-71
2021/03/01 08:31:33;;;;;;;1.20;1.20;;;4.30;98.00;;;;;;5069867;28;20486;-72
2021/03/01 08:34:22;;;;;;;1.77;1.40;;;4.10;98.00;;;;;;5086283;28;20967;-71
2021/03/01 08:36:48;;;;;;;1.40;1.20;;;3.90;98.00;;;;;;5069990;28;20932;-66
2021/03/01 08:39:15;;;;;;;1.67;1.57;;;3.70;98.00;;;;;;5072094;28;20919;-71
2021/03/01 08:41:44;;;;;;;2.43;1.67;;;3.60;98.00;;;;;;5085256;28;20468;-71
2021/03/01 08:44:22;;;;;;;2.07;1.83;;;3.60;98.00;;;;;;5070895;28;20943;-71
2021/03/01 08:46:50;;;;;;;1.40;1.30;;;3.80;98.00;;;;;;5069539;28;20492;-71
2021/03/01 08:49:24;;;;;;;1.20;1.00;;;3.80;98.00;;;;;;5072196;28;20489;-71
2021/03/01 08:51:50;;;;;;;1.20;1.10;;;3.90;98.00;;;;;;5068400;28;20486;-70
2021/03/01 08:54:28;;;;;;;2.30;2.10;;;3.90;98.00;;;;;;5071064;28;20472;-70
2021/03/01 08:57:06;;;;;;;1.20;1.00;;;3.90;98.00;;;;;;5069090;28;20526;-70
2021/03/01 08:59:33;;;;;;;3.50;1.70;;;4.00;98.00;;;;;;5071493;28;20932;-70
2021/03/01 09:01:59;;;;;;;1.90;1.30;;;4.00;98.00;;;;;;5069139;28;20503;-71
2021/03/01 09:04:26;;;;;;;2.67;1.60;;;4.30;98.00;;;;;;5071181;28;20472;-71
2021/03/01 09:06:52;;;;;;;3.90;2.60;;;4.60;98.00;;;;;;5068593;28;20466;-71
2021/03/01 09:09:19;;;;;;;2.00;1.27;;;5.00;98.00;;;;;;5086723;28;20848;-71
2021/03/01 09:11:46;;;;;;;1.80;1.53;;;5.30;98.00;;;;;;5068673;28;20498;-71
2021/03/01 09:14:15;;;;;;;4.17;2.70;;;5.40;98.00;;;;;;5071391;28;20463;-73
2021/03/01 09:16:43;;;;;;;1.93;1.70;;;5.60;98.00;;;;;;5069028;28;20978;-72
2021/03/01 09:19:11;;;;;;;1.60;1.53;;;5.90;98.00;;;;;;5071497;28;20454;-72
2021/03/01 09:21:40;;;;;;;1.40;1.40;;;6.00;98.00;;;;;;5069440;28;20462;-72
2021/03/01 09:24:09;;;;;;;2.43;1.63;;;6.20;97.80;;;;;;5071067;28;20925;-71
2021/03/01 09:26:37;;;;;;;1.60;1.30;;;6.30;97.40;;;;;;5069169;28;20460;-71
2021/03/01 09:29:09;;;;;;;1.40;1.40;;;6.60;96.60;;;;;;5071221;28;20502;-72
2021/03/01 09:31:42;;;;;;;1.83;1.67;;;6.80;95.50;;;;;;5069039;28;20538;-72
2021/03/01 09:34:10;;;;;;;2.33;1.50;;;6.80;95.20;;;;;;5071444;28;20460;-71
2021/03/01 09:36:38;;;;;;;1.20;1.13;;;6.90;94.80;;;;;;5068749;28;20464;-72
2021/03/01 09:39:06;;;;;;;1.30;1.20;;;7.20;94.60;;;;;;5070845;28;20460;-72
2021/03/01 09:41:34;;;;;;;1.50;1.40;;;7.30;93.60;;;;;;5068853;28;20876;-71
2021/03/01 09:44:01;;;;;;;1.20;1.13;;;7.60;93.60;;;;;;5070984;28;20466;-71
2021/03/01 09:46:28;;;;;;;2.03;1.23;;;7.90;92.80;;;;;;5069149;28;20482;-71
2021/03/01 09:48:59;;;;;;;1.67;1.20;;;8.10;91.80;;;;;;5071119;28;20449;-71
2021/03/01 09:51:26;;;;;;;1.73;1.60;;;8.30;91.10;;;;;;5068927;28;20977;-72
2021/03/01 09:53:53;;;;;;;3.87;1.97;;;8.60;90.80;;;;;;5085895;28;20629;-72
2021/03/01 09:56:20;;;;;;;3.53;2.23;;;8.80;89.50;;;;;;5069048;28;20544;-72
2021/03/01 09:58:47;;;;;;;1.40;1.30;;;9.00;88.20;;;;;;5071191;28;20832;-72
2021/03/01 10:01:14;;;;;;;1.30;1.20;;;9.10;88.10;;;;;;5069177;28;20459;-71
2021/03/01 10:03:43;;;;;;;1.40;1.27;;;9.40;87.30;;;;;;5071384;28;20547;-71
2021/03/01 10:06:12;;;;;;;1.20;1.00;;;9.50;86.50;;;;;;5069268;28;20466;-71
2021/03/01 10:08:39;;;;;;;2.27;1.07;;;9.70;85.10;;;;;;5071155;28;20466;-72
2021/03/01 10:11:19;;;;;;;1.20;1.20;;;10.00;83.70;;;;;;5068561;28;20487;-72
2021/03/01 10:13:47;;;;;;;2.70;1.87;;;10.30;83.30;;;;;;5071188;28;20820;-72
2021/03/01 10:16:15;;;;;;;4.23;2.00;;;10.40;83.40;;;;;;5068753;28;20562;-72
2021/03/01 10:18:41;;;;;;;1.20;0.97;;;10.60;82.80;;;;;;5070992;28;20506;-72
2021/03/01 10:21:08;;;;;;;1.40;1.30;;;10.90;81.70;;;;;;5068642;28;20792;-72
2021/03/01 10:23:38;;;;;;;1.40;1.20;;;11.20;81.40;;;;;;5070863;28;20494;-72
2021/03/01 10:26:07;;;;;;;2.17;1.63;;;11.40;79.40;;;;;;5068436;28;20458;-72
2021/03/01 10:28:36;;;;;;;1.33;1.20;;;11.50;79.00;;;;;;5070899;28;20489;-72
2021/03/01 10:31:05;;;;;;;3.53;1.60;;;11.60;77.90;;;;;;5068427;28;20480;-72
2021/03/01 10:33:53;;;;;;;1.20;1.10;;;11.80;77.60;;;;;;5070596;28;20834;-72
2021/03/01 10:36:21;;;;;;;1.60;1.30;;;12.00;74.10;;;;;;5069168;28;20868;-72
2021/03/01 10:38:56;;;;;;;2.50;1.70;;;12.20;74.90;;;;;;5070598;28;20452;-73
2021/03/01 10:41:25;;;;;;;1.60;1.33;;;12.40;74.00;;;;;;5068395;28;20450;-72
2021/03/01 10:44:00;;;;;;;1.20;1.10;;;12.50;73.70;;;;;;5070998;28;20565;-72
2021/03/01 10:46:35;;;;;;;1.47;1.27;;;12.70;72.20;;;;;;5068254;28;20514;-72
2021/03/01 10:49:12;;;;;;;1.20;1.00;;;12.80;72.10;;;;;;5070984;28;20453;-72
2021/03/01 10:51:39;;;;;;;2.80;1.97;;;13.00;71.10;;;;;;5068512;28;20950;-72
2021/03/01 10:54:07;;;;;;;1.40;1.23;;;13.00;69.10;;;;;;5070808;28;20467;-72
2021/03/01 10:56:34;;;;;;;1.50;1.20;;;13.20;69.40;;;;;;5068537;28;20463;-72
2021/03/01 10:59:00;;;;;;;2.30;1.50;;;13.40;67.80;;;;;;5070572;28;21075;-72
2021/03/01 11:01:37;;;;;;;1.50;1.30;;;13.50;66.90;;;;;;5067658;28;20464;-73
2021/03/01 11:04:05;;;;;;;1.60;1.37;;;13.80;67.20;;;;;;5070572;28;20950;-74
2021/03/01 11:06:32;;;;;;;1.57;1.17;;;14.00;66.50;;;;;;5070076;28;20956;-74
2021/03/01 11:08:58;;;;;;;1.30;1.20;;;14.20;65.30;;;;;;5074603;28;20452;-75
2021/03/01 11:11:26;;;;;;;2.27;1.60;;;14.50;64.50;;;;;;5071960;28;20516;-75
2021/03/01 11:13:53;;;;;;;1.40;1.10;;;14.60;64.80;;;;;;5074304;28;20461;-75
2021/03/01 11:16:20;;;;;;;2.70;1.83;;;14.70;64.00;;;;;;5072003;28;20459;-75
2021/03/01 11:18:47;;;;;;;3.37;1.80;;;15.00;63.30;;;;;;5074071;28;20845;-75
2021/03/01 11:21:14;;;;;;;1.43;1.20;;;15.10;62.80;;;;;;5071817;28;20465;-75
2021/03/01 11:23:40;;;;;;;3.10;1.30;;;15.50;61.70;;;;;;5080456;28;20454;-74
2021/03/01 11:26:07;;;;;;;1.77;1.50;;;15.70;59.20;;;;;;5073879;28;20455;-74
2021/03/01 11:28:35;;;;;;;1.43;1.37;;;15.70;59.70;;;;;;5076474;28;20458;-75
2021/03/01 11:31:05;;;;;;;1.50;1.20;;;15.80;60.10;;;;;;5078783;28;20489;-74
2021/03/01 11:33:32;;;;;;;2.00;1.60;;;16.10;59.00;;;;;;5094235;28;20460;-75
2021/03/01 11:35:58;;;;;;;1.97;1.40;;;16.10;57.70;;;;;;5074533;28;20460;-75
2021/03/01 11:38:25;;;;;;;1.77;1.23;;;16.30;58.20;;;;;;5073854;28;20494;-75
2021/03/01 11:40:53;;;;;;;1.60;1.50;;;16.50;58.80;;;;;;5072460;28;20877;-75
2021/03/01 11:43:20;;;;;;;2.20;1.27;;;16.60;57.00;;;;;;5079523;28;20456;-75
2021/03/01 11:45:48;;;;;;;1.40;1.30;;;16.80;57.00;;;;;;5077531;28;20467;-75
2021/03/01 11:48:15;;;;;;;2.47;1.57;;;16.90;56.20;;;;;;5076070;28;20727;-75
2021/03/01 11:50:43;;;;;;;1.30;1.20;;;16.90;56.10;;;;;;5070976;28;20502;-76
2021/03/01 11:53:10;;;;;;;1.90;1.70;;;17.00;55.80;;;;;;5073482;28;20459;-77
2021/03/01 11:55:37;;;;;;;1.70;1.20;;;17.20;56.80;;;;;;5070888;28;20465;-77
2021/03/01 11:58:04;;;;;;;1.70;1.23;;;17.30;55.10;;;;;;5073191;28;20463;-76
2021/03/01 12:00:31;;;;;;;1.30;1.30;;;17.40;55.40;;;;;;5070952;28;20958;-76
2021/03/01 12:02:59;;;;;;;1.97;1.50;;;17.60;55.70;;;;;;5073258;28;20476;-76
2021/03/01 12:05:25;;;;;;;1.53;1.20;;;17.70;53.60;;;;;;5070821;28;20461;-73
2021/03/01 12:07:52;;;;;;;2.47;1.47;;;17.50;55.30;;;;;;5073002;28;20538;-78
2021/03/01 12:10:20;;;;;;;1.20;1.10;;;17.50;54.90;;;;;;5070502;28;20507;-76
2021/03/01 12:12:48;;;;;;;3.60;2.40;;;17.70;55.30;;;;;;5072940;28;20457;-76
2021/03/01 12:15:14;;;;;;;1.73;1.50;;;17.50;55.10;;;;;;5070497;28;20464;-74
2021/03/01 12:17:41;;;;;;;3.00;1.33;;;17.30;54.50;;;;;;5072416;28;20521;-73
2021/03/01 12:20:09;;;;;;;1.50;1.33;;;17.10;54.70;;;;;;5070411;28;20460;-73
2021/03/01 12:22:36;;;;;;;1.20;1.10;;;16.80;55.00;;;;;;5072998;28;20464;-73
2021/03/01 12:25:04;;;;;;;1.57;1.40;;;16.80;55.40;;;;;;5071381;28;20464;-73
2021/03/01 12:27:30;;;;;;;1.77;1.40;;;16.90;54.80;;;;;;5072995;28;20457;-73
2021/03/01 12:29:57;;;;;;;1.20;1.10;;;16.90;55.90;;;;;;5072521;28;20551;-73
2021/03/01 12:32:24;;;;;;;3.23;1.67;;;16.90;56.20;;;;;;5070781;28;20468;-75
2021/03/01 12:34:51;;;;;;;1.67;1.20;;;17.00;56.50;;;;;;5072832;28;20523;-73
2021/03/01 12:37:19;;;;;;;3.30;1.60;;;17.10;55.40;;;;;;5070599;28;20453;-73
2021/03/01 12:39:45;;;;;;;1.50;1.17;;;17.00;55.40;;;;;;5072586;28;20457;-73
2021/03/01 12:42:12;;;;;;;1.30;1.13;;;16.90;55.70;;;;;;5070378;28;20468;-76
2021/03/01 12:44:38;;;;;;;1.50;1.40;;;16.90;56.30;;;;;;5072568;28;20497;-75
2021/03/01 12:47:05;;;;;;;1.47;1.30;;;16.90;55.40;;;;;;5070325;28;20995;-74
2021/03/01 12:49:32;;;;;;;1.60;1.30;;;17.00;56.40;;;;;;5072075;28;20514;-73
2021/03/01 12:51:59;;;;;;;1.27;1.27;;;17.00;56.60;;;;;;5085372;28;20475;-73
2021/03/01 12:54:27;;;;;;;1.80;1.33;;;16.90;57.80;;;;;;5072224;28;20536;-73
2021/03/01 12:56:53;;;;;;;1.57;1.20;;;17.00;56.90;;;;;;5069830;28;20460;-73
2021/03/01 12:59:20;;;;;;;1.40;1.17;;;16.90;57.70;;;;;;5072001;28;20805;-72
2021/03/01 13:01:46;;;;;;;1.60;1.23;;;17.00;58.30;;;;;;5069705;28;20456;-73